Terminal Aerodrome Forecast
Issued by NWS

Home | Current Version | Previous Version | Text Only | Print | Product List | Glossary On
Versions: 1 2 3 4 5 6 7 8 9 10 11 12 13 14 15 16 17 18 19 20 21 22 23 24 25 26 27 28 29 30 31 32 33 34 35 36 37 38 39 40 41 42 43 44 45
000
FTAK31 PAFA 262255 AAA
TAFABT
TAF AMD
PABT 262255Z 2623/2718 00000KT 2SM -SN BR BKN015 OVC025
      TEMPO 2623/2701 1/2SM SN OVC010
     FM270400 29005KT 5SM -SN BR BKN025 OVC050
     FM270800 30008KT P6SM -SHSN BKN050 OVC100=

USA.gov is the U.S. government's official web portal to all federal, state and local government web resources and services.